sensor_id;sensor_type;location;lat;lon;timestamp;P1;durP1;ratioP1;P2;durP2;ratioP2
21777;SDS011;11050;52.222;20.916;2023-03-01T00:01:25;88.63;;;36.43;;
21777;SDS011;11050;52.222;20.916;2023-03-01T00:03:54;85.83;;;31.93;;
21777;SDS011;11050;52.222;20.916;2023-03-01T00:06:22;84.47;;;34.83;;
21777;SDS011;11050;52.222;20.916;2023-03-01T00:08:49;80.37;;;35.67;;
21777;SDS011;11050;52.222;20.916;2023-03-01T00:11:20;91.33;;;36.70;;
21777;SDS011;11050;52.222;20.916;2023-03-01T00:13:49;79.73;;;34.40;;
21777;SDS011;11050;52.222;20.916;2023-03-01T00:16:19;71.97;;;33.20;;
21777;SDS011;11050;52.222;20.916;2023-03-01T00:18:49;87.43;;;37.33;;
21777;SDS011;11050;52.222;20.916;2023-03-01T00:21:15;91.63;;;39.53;;
21777;SDS011;11050;52.222;20.916;2023-03-01T00:23:42;89.20;;;39.57;;
21777;SDS011;11050;52.222;20.916;2023-03-01T00:26:09;86.53;;;37.53;;
21777;SDS011;11050;52.222;20.916;2023-03-01T00:28:37;83.77;;;35.73;;
21777;SDS011;11050;52.222;20.916;2023-03-01T00:31:10;78.27;;;33.63;;
21777;SDS011;11050;52.222;20.916;2023-03-01T00:33:41;98.27;;;39.37;;
21777;SDS011;11050;52.222;20.916;2023-03-01T00:36:09;89.37;;;36.83;;
21777;SDS011;11050;52.222;20.916;2023-03-01T00:38:44;86.20;;;33.80;;
21777;SDS011;11050;52.222;20.916;2023-03-01T00:41:11;81.70;;;34.90;;
21777;SDS011;11050;52.222;20.916;2023-03-01T00:43:40;83.23;;;34.37;;
21777;SDS011;11050;52.222;20.916;2023-03-01T00:46:08;80.20;;;35.13;;
21777;SDS011;11050;52.222;20.916;2023-03-01T00:48:38;78.70;;;34.57;;
21777;SDS011;11050;52.222;20.916;2023-03-01T00:51:08;81.43;;;34.87;;
21777;SDS011;11050;52.222;20.916;2023-03-01T00:53:41;71.43;;;32.07;;
21777;SDS011;11050;52.222;20.916;2023-03-01T00:56:08;80.77;;;33.67;;
21777;SDS011;11050;52.222;20.916;2023-03-01T00:58:36;85.00;;;34.33;;
21777;SDS011;11050;52.222;20.916;2023-03-01T01:01:35;77.90;;;33.60;;
21777;SDS011;11050;52.222;20.916;2023-03-01T01:06:28;78.40;;;33.97;;
21777;SDS011;11050;52.222;20.916;2023-03-01T01:08:57;85.60;;;36.63;;
21777;SDS011;11050;52.222;20.916;2023-03-01T01:11:24;79.07;;;33.20;;
21777;SDS011;11050;52.222;20.916;2023-03-01T01:13:53;77.60;;;32.57;;
21777;SDS011;11050;52.222;20.916;2023-03-01T01:16:21;77.67;;;31.87;;
21777;SDS011;11050;52.222;20.916;2023-03-01T01:18:50;72.13;;;31.70;;
21777;SDS011;11050;52.222;20.916;2023-03-01T01:21:16;73.27;;;29.87;;
21777;SDS011;11050;52.222;20.916;2023-03-01T01:23:46;73.37;;;32.67;;
21777;SDS011;11050;52.222;20.916;2023-03-01T01:26:15;81.87;;;34.03;;
21777;SDS011;11050;52.222;20.916;2023-03-01T01:28:44;76.30;;;31.10;;
21777;SDS011;11050;52.222;20.916;2023-03-01T01:31:12;76.67;;;30.57;;
21777;SDS011;11050;52.222;20.916;2023-03-01T01:33:39;81.67;;;32.67;;
21777;SDS011;11050;52.222;20.916;2023-03-01T01:36:05;81.83;;;33.30;;
21777;SDS011;11050;52.222;20.916;2023-03-01T01:38:33;84.50;;;31.30;;
21777;SDS011;11050;52.222;20.916;2023-03-01T01:41:01;74.90;;;31.73;;
21777;SDS011;11050;52.222;20.916;2023-03-01T01:43:29;83.67;;;35.90;;
21777;SDS011;11050;52.222;20.916;2023-03-01T01:46:07;63.03;;;24.03;;
21777;SDS011;11050;52.222;20.916;2023-03-01T01:48:56;77.70;;;30.93;;
21777;SDS011;11050;52.222;20.916;2023-03-01T01:51:44;77.40;;;33.70;;
21777;SDS011;11050;52.222;20.916;2023-03-01T01:54:20;74.17;;;31.47;;
21777;SDS011;11050;52.222;20.916;2023-03-01T01:56:55;73.20;;;31.13;;
21777;SDS011;11050;52.222;20.916;2023-03-01T01:59:27;73.77;;;32.40;;
21777;SDS011;11050;52.222;20.916;2023-03-01T02:01:56;79.33;;;33.53;;
21777;SDS011;11050;52.222;20.916;2023-03-01T02:04:28;77.47;;;32.03;;
21777;SDS011;11050;52.222;20.916;2023-03-01T02:07:03;74.20;;;29.43;;
21777;SDS011;11050;52.222;20.916;2023-03-01T02:09:46;73.90;;;31.23;;
21777;SDS011;11050;52.222;20.916;2023-03-01T02:12:15;80.00;;;32.83;;
21777;SDS011;11050;52.222;20.916;2023-03-01T02:14:45;80.60;;;33.20;;
21777;SDS011;11050;52.222;20.916;2023-03-01T02:17:11;81.97;;;35.17;;
21777;SDS011;11050;52.222;20.916;2023-03-01T02:22:38;86.63;;;34.63;;
21777;SDS011;11050;52.222;20.916;2023-03-01T02:27:55;80.67;;;32.90;;
21777;SDS011;11050;52.222;20.916;2023-03-01T02:30:33;68.93;;;28.03;;
21777;SDS011;11050;52.222;20.916;2023-03-01T02:32:59;80.93;;;31.17;;
21777;SDS011;11050;52.222;20.916;2023-03-01T02:38:34;86.60;;;35.83;;
21777;SDS011;11050;52.222;20.916;2023-03-01T02:40:59;87.40;;;35.87;;
21777;SDS011;11050;52.222;20.916;2023-03-01T02:43:31;80.27;;;34.57;;
21777;SDS011;11050;52.222;20.916;2023-03-01T02:45:59;77.40;;;31.57;;
21777;SDS011;11050;52.222;20.916;2023-03-01T02:55:02;75.93;;;32.77;;
21777;SDS011;11050;52.222;20.916;2023-03-01T02:57:37;78.40;;;31.90;;
21777;SDS011;11050;52.222;20.916;2023-03-01T03:00:08;80.23;;;33.87;;
21777;SDS011;11050;52.222;20.916;2023-03-01T03:02:44;86.03;;;35.30;;
21777;SDS011;11050;52.222;20.916;2023-03-01T03:05:17;87.27;;;33.70;;
21777;SDS011;11050;52.222;20.916;2023-03-01T03:07:45;87.17;;;35.20;;
21777;SDS011;11050;52.222;20.916;2023-03-01T03:10:14;88.00;;;33.80;;
21777;SDS011;11050;52.222;20.916;2023-03-01T03:12:54;79.07;;;29.33;;
21777;SDS011;11050;52.222;20.916;2023-03-01T03:15:23;76.73;;;31.60;;
21777;SDS011;11050;52.222;20.916;2023-03-01T03:17:50;81.77;;;34.23;;
21777;SDS011;11050;52.222;20.916;2023-03-01T03:20:18;85.10;;;34.47;;
21777;SDS011;11050;52.222;20.916;2023-03-01T03:22:46;82.10;;;35.33;;
21777;SDS011;11050;52.222;20.916;2023-03-01T03:25:16;79.57;;;33.37;;
21777;SDS011;11050;52.222;20.916;2023-03-01T03:27:43;74.63;;;29.43;;
21777;SDS011;11050;52.222;20.916;2023-03-01T03:30:13;76.20;;;30.53;;
21777;SDS011;11050;52.222;20.916;2023-03-01T03:32:44;71.67;;;29.10;;
21777;SDS011;11050;52.222;20.916;2023-03-01T03:35:31;81.63;;;33.80;;
21777;SDS011;11050;52.222;20.916;2023-03-01T03:38:12;70.00;;;28.87;;
21777;SDS011;11050;52.222;20.916;2023-03-01T03:40:46;78.93;;;32.07;;
21777;SDS011;11050;52.222;20.916;2023-03-01T03:43:34;69.20;;;30.40;;
21777;SDS011;11050;52.222;20.916;2023-03-01T03:46:02;84.03;;;34.60;;
21777;SDS011;11050;52.222;20.916;2023-03-01T03:48:39;89.10;;;38.40;;
21777;SDS011;11050;52.222;20.916;2023-03-01T03:51:12;71.97;;;30.97;;
21777;SDS011;11050;52.222;20.916;2023-03-01T03:53:41;82.87;;;35.47;;
21777;SDS011;11050;52.222;20.916;2023-03-01T03:56:07;80.93;;;34.00;;
21777;SDS011;11050;52.222;20.916;2023-03-01T03:58:34;84.83;;;34.90;;
21777;SDS011;11050;52.222;20.916;2023-03-01T04:00:59;79.80;;;31.37;;
21777;SDS011;11050;52.222;20.916;2023-03-01T04:03:26;75.77;;;33.97;;
21777;SDS011;11050;52.222;20.916;2023-03-01T04:05:54;82.27;;;35.13;;
21777;SDS011;11050;52.222;20.916;2023-03-01T04:08:23;83.77;;;34.07;;
21777;SDS011;11050;52.222;20.916;2023-03-01T04:10:50;81.57;;;33.33;;
21777;SDS011;11050;52.222;20.916;2023-03-01T04:13:21;74.97;;;31.87;;
21777;SDS011;11050;52.222;20.916;2023-03-01T04:15:50;79.00;;;32.73;;
21777;SDS011;11050;52.222;20.916;2023-03-01T04:18:18;75.13;;;34.03;;
21777;SDS011;11050;52.222;20.916;2023-03-01T04:20:47;75.80;;;30.93;;
21777;SDS011;11050;52.222;20.916;2023-03-01T04:23:14;79.40;;;30.03;;
21777;SDS011;11050;52.222;20.916;2023-03-01T04:25:52;90.37;;;34.93;;
21777;SDS011;11050;52.222;20.916;2023-03-01T04:28:56;72.37;;;29.50;;
21777;SDS011;11050;52.222;20.916;2023-03-01T04:31:16;79.80;;;32.90;;
21777;SDS011;11050;52.222;20.916;2023-03-01T04:33:47;84.33;;;37.07;;
21777;SDS011;11050;52.222;20.916;2023-03-01T04:36:16;76.43;;;30.00;;
21777;SDS011;11050;52.222;20.916;2023-03-01T04:38:44;87.77;;;36.77;;
21777;SDS011;11050;52.222;20.916;2023-03-01T04:41:14;76.00;;;32.70;;
21777;SDS011;11050;52.222;20.916;2023-03-01T04:43:42;76.20;;;30.37;;
21777;SDS011;11050;52.222;20.916;2023-03-01T04:46:10;75.03;;;32.30;;
21777;SDS011;11050;52.222;20.916;2023-03-01T04:48:39;83.90;;;33.67;;
21777;SDS011;11050;52.222;20.916;2023-03-01T04:51:08;83.27;;;34.30;;
21777;SDS011;11050;52.222;20.916;2023-03-01T04:53:34;90.00;;;38.00;;
21777;SDS011;11050;52.222;20.916;2023-03-01T04:56:03;78.33;;;34.33;;
21777;SDS011;11050;52.222;20.916;2023-03-01T04:58:30;88.23;;;36.83;;
21777;SDS011;11050;52.222;20.916;2023-03-01T05:00:56;88.23;;;34.57;;
21777;SDS011;11050;52.222;20.916;2023-03-01T05:03:21;73.43;;;30.87;;
21777;SDS011;11050;52.222;20.916;2023-03-01T05:05:49;77.63;;;33.17;;
21777;SDS011;11050;52.222;20.916;2023-03-01T05:08:17;68.77;;;30.73;;
21777;SDS011;11050;52.222;20.916;2023-03-01T05:10:49;77.63;;;33.20;;
21777;SDS011;11050;52.222;20.916;2023-03-01T05:13:18;75.23;;;31.20;;
21777;SDS011;11050;52.222;20.916;2023-03-01T05:15:53;85.27;;;36.37;;
21777;SDS011;11050;52.222;20.916;2023-03-01T05:18:22;77.57;;;33.60;;
21777;SDS011;11050;52.222;20.916;2023-03-01T05:20:56;81.83;;;34.20;;
21777;SDS011;11050;52.222;20.916;2023-03-01T05:23:31;75.23;;;30.53;;
21777;SDS011;11050;52.222;20.916;2023-03-01T05:25:58;87.93;;;34.43;;
21777;SDS011;11050;52.222;20.916;2023-03-01T05:28:26;79.50;;;31.97;;
21777;SDS011;11050;52.222;20.916;2023-03-01T05:30:56;77.17;;;33.47;;
21777;SDS011;11050;52.222;20.916;2023-03-01T05:33:22;76.50;;;32.03;;
21777;SDS011;11050;52.222;20.916;2023-03-01T05:35:50;78.27;;;31.80;;
21777;SDS011;11050;52.222;20.916;2023-03-01T05:38:17;64.50;;;26.50;;
21777;SDS011;11050;52.222;20.916;2023-03-01T05:40:43;78.00;;;31.87;;
21777;SDS011;11050;52.222;20.916;2023-03-01T05:43:12;76.23;;;31.13;;
21777;SDS011;11050;52.222;20.916;2023-03-01T05:45:40;80.17;;;32.23;;
21777;SDS011;11050;52.222;20.916;2023-03-01T05:48:07;82.90;;;34.73;;
21777;SDS011;11050;52.222;20.916;2023-03-01T05:50:35;85.90;;;32.17;;
21777;SDS011;11050;52.222;20.916;2023-03-01T05:53:12;63.30;;;23.63;;
21777;SDS011;11050;52.222;20.916;2023-03-01T05:55:41;61.57;;;24.67;;
21777;SDS011;11050;52.222;20.916;2023-03-01T05:58:09;72.97;;;31.63;;
21777;SDS011;11050;52.222;20.916;2023-03-01T06:00:42;63.17;;;24.33;;
21777;SDS011;11050;52.222;20.916;2023-03-01T06:03:10;77.57;;;31.33;;
21777;SDS011;11050;52.222;20.916;2023-03-01T06:05:39;58.10;;;21.53;;
21777;SDS011;11050;52.222;20.916;2023-03-01T06:08:05;80.40;;;33.83;;
21777;SDS011;11050;52.222;20.916;2023-03-01T06:10:31;62.00;;;25.17;;
21777;SDS011;11050;52.222;20.916;2023-03-01T06:12:57;54.87;;;24.30;;
21777;SDS011;11050;52.222;20.916;2023-03-01T06:15:24;72.47;;;30.70;;
21777;SDS011;11050;52.222;20.916;2023-03-01T06:17:50;76.67;;;30.83;;
21777;SDS011;11050;52.222;20.916;2023-03-01T06:20:21;79.57;;;31.40;;
21777;SDS011;11050;52.222;20.916;2023-03-01T06:22:49;60.23;;;24.43;;
21777;SDS011;11050;52.222;20.916;2023-03-01T06:25:19;82.87;;;31.10;;
21777;SDS011;11050;52.222;20.916;2023-03-01T06:27:48;73.63;;;31.97;;
21777;SDS011;11050;52.222;20.916;2023-03-01T06:32:42;79.60;;;31.83;;
21777;SDS011;11050;52.222;20.916;2023-03-01T06:35:09;74.73;;;33.83;;
21777;SDS011;11050;52.222;20.916;2023-03-01T06:37:37;61.53;;;25.60;;
21777;SDS011;11050;52.222;20.916;2023-03-01T06:40:05;72.33;;;31.67;;
21777;SDS011;11050;52.222;20.916;2023-03-01T06:42:35;71.87;;;30.47;;
21777;SDS011;11050;52.222;20.916;2023-03-01T06:45:06;68.97;;;27.57;;
21777;SDS011;11050;52.222;20.916;2023-03-01T06:47:33;63.07;;;24.43;;
21777;SDS011;11050;52.222;20.916;2023-03-01T06:49:59;69.63;;;28.07;;
21777;SDS011;11050;52.222;20.916;2023-03-01T06:52:26;52.07;;;20.07;;
21777;SDS011;11050;52.222;20.916;2023-03-01T06:54:51;64.63;;;28.17;;
21777;SDS011;11050;52.222;20.916;2023-03-01T06:57:17;61.17;;;26.23;;
21777;SDS011;11050;52.222;20.916;2023-03-01T06:59:43;53.13;;;21.77;;
21777;SDS011;11050;52.222;20.916;2023-03-01T07:02:10;71.43;;;31.23;;
21777;SDS011;11050;52.222;20.916;2023-03-01T07:04:36;56.70;;;26.23;;
21777;SDS011;11050;52.222;20.916;2023-03-01T07:07:03;59.80;;;27.47;;
21777;SDS011;11050;52.222;20.916;2023-03-01T07:09:28;65.30;;;27.40;;
21777;SDS011;11050;52.222;20.916;2023-03-01T07:11:54;67.33;;;28.80;;
21777;SDS011;11050;52.222;20.916;2023-03-01T07:14:21;56.87;;;24.87;;
21777;SDS011;11050;52.222;20.916;2023-03-01T07:16:49;56.67;;;25.60;;
21777;SDS011;11050;52.222;20.916;2023-03-01T07:19:15;71.13;;;29.47;;
21777;SDS011;11050;52.222;20.916;2023-03-01T07:21:41;58.17;;;26.60;;
21777;SDS011;11050;52.222;20.916;2023-03-01T07:24:06;64.47;;;29.43;;
21777;SDS011;11050;52.222;20.916;2023-03-01T07:26:33;63.90;;;28.90;;
21777;SDS011;11050;52.222;20.916;2023-03-01T07:28:59;75.63;;;30.23;;
21777;SDS011;11050;52.222;20.916;2023-03-01T07:31:27;64.23;;;29.03;;
21777;SDS011;11050;52.222;20.916;2023-03-01T07:33:53;64.87;;;27.63;;
21777;SDS011;11050;52.222;20.916;2023-03-01T07:36:19;63.87;;;29.07;;
21777;SDS011;11050;52.222;20.916;2023-03-01T07:38:45;59.80;;;27.80;;
21777;SDS011;11050;52.222;20.916;2023-03-01T07:41:11;59.00;;;25.13;;
21777;SDS011;11050;52.222;20.916;2023-03-01T07:43:37;45.90;;;21.50;;
21777;SDS011;11050;52.222;20.916;2023-03-01T07:46:03;65.10;;;28.87;;
21777;SDS011;11050;52.222;20.916;2023-03-01T07:48:29;63.43;;;27.30;;
21777;SDS011;11050;52.222;20.916;2023-03-01T07:50:59;56.43;;;25.90;;
21777;SDS011;11050;52.222;20.916;2023-03-01T07:53:27;58.43;;;27.03;;
21777;SDS011;11050;52.222;20.916;2023-03-01T07:58:37;48.57;;;21.73;;
21777;SDS011;11050;52.222;20.916;2023-03-01T08:01:06;62.20;;;28.13;;
21777;SDS011;11050;52.222;20.916;2023-03-01T08:03:35;63.03;;;26.30;;
21777;SDS011;11050;52.222;20.916;2023-03-01T08:06:03;51.47;;;24.80;;
21777;SDS011;11050;52.222;20.916;2023-03-01T08:08:32;56.67;;;26.23;;
21777;SDS011;11050;52.222;20.916;2023-03-01T08:11:00;48.93;;;22.33;;
21777;SDS011;11050;52.222;20.916;2023-03-01T08:13:28;52.93;;;26.10;;
21777;SDS011;11050;52.222;20.916;2023-03-01T08:15:59;51.97;;;22.33;;
21777;SDS011;11050;52.222;20.916;2023-03-01T08:18:31;54.57;;;24.20;;
21777;SDS011;11050;52.222;20.916;2023-03-01T08:21:01;54.20;;;25.27;;
21777;SDS011;11050;52.222;20.916;2023-03-01T08:23:39;43.53;;;22.37;;
21777;SDS011;11050;52.222;20.916;2023-03-01T08:26:10;56.53;;;24.07;;
21777;SDS011;11050;52.222;20.916;2023-03-01T08:28:45;48.43;;;22.70;;
21777;SDS011;11050;52.222;20.916;2023-03-01T08:31:13;54.43;;;25.07;;
21777;SDS011;11050;52.222;20.916;2023-03-01T08:34:04;53.53;;;24.73;;
21777;SDS011;11050;52.222;20.916;2023-03-01T08:36:38;50.93;;;25.37;;
21777;SDS011;11050;52.222;20.916;2023-03-01T08:39:07;58.77;;;25.00;;
21777;SDS011;11050;52.222;20.916;2023-03-01T08:41:36;50.73;;;21.57;;
21777;SDS011;11050;52.222;20.916;2023-03-01T08:44:03;51.10;;;24.53;;
21777;SDS011;11050;52.222;20.916;2023-03-01T08:46:30;47.63;;;23.23;;
21777;SDS011;11050;52.222;20.916;2023-03-01T08:49:03;48.60;;;24.60;;
21777;SDS011;11050;52.222;20.916;2023-03-01T08:51:30;52.77;;;24.00;;
21777;SDS011;11050;52.222;20.916;2023-03-01T08:54:01;60.13;;;25.80;;
21777;SDS011;11050;52.222;20.916;2023-03-01T08:56:33;47.97;;;23.47;;
21777;SDS011;11050;52.222;20.916;2023-03-01T08:58:58;49.60;;;23.67;;
21777;SDS011;11050;52.222;20.916;2023-03-01T09:01:25;51.40;;;24.00;;
21777;SDS011;11050;52.222;20.916;2023-03-01T09:03:50;44.57;;;22.60;;
21777;SDS011;11050;52.222;20.916;2023-03-01T09:06:16;46.07;;;21.13;;
21777;SDS011;11050;52.222;20.916;2023-03-01T09:08:44;42.07;;;20.67;;
21777;SDS011;11050;52.222;20.916;2023-03-01T09:11:14;48.43;;;23.50;;
21777;SDS011;11050;52.222;20.916;2023-03-01T09:13:46;43.67;;;22.63;;
21777;SDS011;11050;52.222;20.916;2023-03-01T09:16:14;45.70;;;22.57;;
21777;SDS011;11050;52.222;20.916;2023-03-01T09:18:42;39.57;;;21.57;;
21777;SDS011;11050;52.222;20.916;2023-03-01T09:21:13;43.77;;;22.37;;
21777;SDS011;11050;52.222;20.916;2023-03-01T09:23:42;41.37;;;21.43;;
21777;SDS011;11050;52.222;20.916;2023-03-01T09:26:12;42.67;;;22.63;;
21777;SDS011;11050;52.222;20.916;2023-03-01T09:28:44;42.27;;;22.47;;
21777;SDS011;11050;52.222;20.916;2023-03-01T09:31:14;42.13;;;19.60;;
21777;SDS011;11050;52.222;20.916;2023-03-01T09:33:45;41.87;;;21.10;;
21777;SDS011;11050;52.222;20.916;2023-03-01T09:36:13;42.07;;;21.17;;
21777;SDS011;11050;52.222;20.916;2023-03-01T09:38:43;37.90;;;21.03;;
21777;SDS011;11050;52.222;20.916;2023-03-01T09:41:10;42.83;;;20.07;;
21777;SDS011;11050;52.222;20.916;2023-03-01T09:43:51;41.87;;;20.63;;
21777;SDS011;11050;52.222;20.916;2023-03-01T09:46:24;34.70;;;16.73;;
21777;SDS011;11050;52.222;20.916;2023-03-01T09:48:53;36.37;;;19.10;;
21777;SDS011;11050;52.222;20.916;2023-03-01T09:53:56;35.27;;;17.93;;
21777;SDS011;11050;52.222;20.916;2023-03-01T09:58:56;34.93;;;19.10;;
21777;SDS011;11050;52.222;20.916;2023-03-01T10:02:20;32.70;;;15.23;;
21777;SDS011;11050;52.222;20.916;2023-03-01T10:04:52;34.47;;;18.37;;
21777;SDS011;11050;52.222;20.916;2023-03-01T10:07:40;35.57;;;19.00;;
21777;SDS011;11050;52.222;20.916;2023-03-01T10:10:34;35.70;;;16.87;;
21777;SDS011;11050;52.222;20.916;2023-03-01T10:13:10;32.27;;;15.63;;
21777;SDS011;11050;52.222;20.916;2023-03-01T10:15:50;27.40;;;13.67;;
21777;SDS011;11050;52.222;20.916;2023-03-01T10:18:26;31.23;;;15.20;;
21777;SDS011;11050;52.222;20.916;2023-03-01T10:21:01;32.07;;;16.13;;
21777;SDS011;11050;52.222;20.916;2023-03-01T10:23:38;25.63;;;12.30;;
21777;SDS011;11050;52.222;20.916;2023-03-01T10:26:20;31.70;;;15.40;;
21777;SDS011;11050;52.222;20.916;2023-03-01T10:29:12;23.80;;;11.37;;
21777;SDS011;11050;52.222;20.916;2023-03-01T10:31:51;25.37;;;14.03;;
21777;SDS011;11050;52.222;20.916;2023-03-01T10:34:20;27.23;;;13.70;;
21777;SDS011;11050;52.222;20.916;2023-03-01T10:37:07;26.23;;;12.23;;
21777;SDS011;11050;52.222;20.916;2023-03-01T10:42:33;23.97;;;12.60;;
21777;SDS011;11050;52.222;20.916;2023-03-01T10:45:35;23.57;;;12.93;;
21777;SDS011;11050;52.222;20.916;2023-03-01T10:50:33;20.97;;;11.00;;
21777;SDS011;11050;52.222;20.916;2023-03-01T10:53:00;24.43;;;12.50;;
21777;SDS011;11050;52.222;20.916;2023-03-01T10:55:31;22.57;;;12.17;;
21777;SDS011;11050;52.222;20.916;2023-03-01T10:58:11;21.87;;;11.33;;
21777;SDS011;11050;52.222;20.916;2023-03-01T11:00:47;23.77;;;12.73;;
21777;SDS011;11050;52.222;20.916;2023-03-01T11:03:39;20.00;;;10.00;;
21777;SDS011;11050;52.222;20.916;2023-03-01T11:06:16;23.23;;;11.70;;
21777;SDS011;11050;52.222;20.916;2023-03-01T11:08:48;22.67;;;11.57;;
21777;SDS011;11050;52.222;20.916;2023-03-01T11:16:27;20.60;;;11.70;;
21777;SDS011;11050;52.222;20.916;2023-03-01T11:19:20;18.50;;;11.97;;
21777;SDS011;11050;52.222;20.916;2023-03-01T11:22:07;23.43;;;12.90;;
21777;SDS011;11050;52.222;20.916;2023-03-01T11:24:51;23.47;;;10.33;;
21777;SDS011;11050;52.222;20.916;2023-03-01T11:27:33;22.20;;;12.33;;
21777;SDS011;11050;52.222;20.916;2023-03-01T11:30:09;21.33;;;11.57;;
21777;SDS011;11050;52.222;20.916;2023-03-01T11:33:10;23.87;;;11.53;;
21777;SDS011;11050;52.222;20.916;2023-03-01T11:35:47;23.10;;;13.30;;
21777;SDS011;11050;52.222;20.916;2023-03-01T11:38:27;23.27;;;13.10;;
21777;SDS011;11050;52.222;20.916;2023-03-01T11:40:59;21.40;;;12.43;;
21777;SDS011;11050;52.222;20.916;2023-03-01T11:47:28;19.73;;;11.83;;
21777;SDS011;11050;52.222;20.916;2023-03-01T12:08:12;18.35;;;11.85;;
21777;SDS011;11050;52.222;20.916;2023-03-01T12:26:30;21.02;;;12.57;;
21777;SDS011;11050;52.222;20.916;2023-03-01T12:29:23;23.23;;;13.48;;
21777;SDS011;11050;52.222;20.916;2023-03-01T12:35:39;19.48;;;13.00;;
21777;SDS011;11050;52.222;20.916;2023-03-01T12:38:33;17.70;;;12.02;;
21777;SDS011;11050;52.222;20.916;2023-03-01T12:41:46;23.73;;;12.88;;
21777;SDS011;11050;52.222;20.916;2023-03-01T12:47:26;23.92;;;14.02;;
21777;SDS011;11050;52.222;20.916;2023-03-01T12:50:24;21.02;;;13.13;;
21777;SDS011;11050;52.222;20.916;2023-03-01T12:53:04;22.95;;;13.25;;
21777;SDS011;11050;52.222;20.916;2023-03-01T12:55:33;22.08;;;11.95;;
21777;SDS011;11050;52.222;20.916;2023-03-01T13:01:15;20.52;;;13.02;;
21777;SDS011;11050;52.222;20.916;2023-03-01T13:04:30;36.78;;;14.18;;
21777;SDS011;11050;52.222;20.916;2023-03-01T13:13:11;21.13;;;14.05;;
21777;SDS011;11050;52.222;20.916;2023-03-01T13:15:49;22.88;;;14.00;;
21777;SDS011;11050;52.222;20.916;2023-03-01T13:33:54;21.17;;;13.88;;
21777;SDS011;11050;52.222;20.916;2023-03-01T13:39:26;20.10;;;13.23;;
21777;SDS011;11050;52.222;20.916;2023-03-01T13:44:58;20.50;;;14.38;;
21777;SDS011;11050;52.222;20.916;2023-03-01T13:47:25;19.95;;;12.77;;
21777;SDS011;11050;52.222;20.916;2023-03-01T13:57:39;20.15;;;12.75;;
21777;SDS011;11050;52.222;20.916;2023-03-01T14:00:55;19.33;;;13.48;;
21777;SDS011;11050;52.222;20.916;2023-03-01T14:08:35;22.05;;;14.40;;
21777;SDS011;11050;52.222;20.916;2023-03-01T14:19:59;19.65;;;12.40;;
21777;SDS011;11050;52.222;20.916;2023-03-01T14:22:51;21.30;;;13.63;;
21777;SDS011;11050;52.222;20.916;2023-03-01T14:30:53;19.48;;;13.52;;
21777;SDS011;11050;52.222;20.916;2023-03-01T14:35:57;21.83;;;13.00;;
21777;SDS011;11050;52.222;20.916;2023-03-01T14:38:43;18.88;;;13.25;;
21777;SDS011;11050;52.222;20.916;2023-03-01T14:41:18;21.73;;;13.70;;
21777;SDS011;11050;52.222;20.916;2023-03-01T14:43:53;19.92;;;13.30;;
21777;SDS011;11050;52.222;20.916;2023-03-01T14:49:05;20.50;;;13.45;;
21777;SDS011;11050;52.222;20.916;2023-03-01T14:51:42;21.95;;;13.77;;
21777;SDS011;11050;52.222;20.916;2023-03-01T14:54:24;18.95;;;12.18;;
21777;SDS011;11050;52.222;20.916;2023-03-01T14:57:12;22.45;;;13.35;;
21777;SDS011;11050;52.222;20.916;2023-03-01T14:59:40;20.67;;;12.88;;
21777;SDS011;11050;52.222;20.916;2023-03-01T15:02:11;20.85;;;14.43;;
21777;SDS011;11050;52.222;20.916;2023-03-01T15:04:48;24.52;;;13.73;;
21777;SDS011;11050;52.222;20.916;2023-03-01T15:07:17;23.67;;;14.07;;
21777;SDS011;11050;52.222;20.916;2023-03-01T15:09:44;26.42;;;17.52;;
21777;SDS011;11050;52.222;20.916;2023-03-01T15:15:18;27.17;;;13.35;;
21777;SDS011;11050;52.222;20.916;2023-03-01T15:20:50;30.08;;;17.70;;
21777;SDS011;11050;52.222;20.916;2023-03-01T15:23:19;30.25;;;17.17;;
21777;SDS011;11050;52.222;20.916;2023-03-01T15:25:52;36.65;;;20.10;;
21777;SDS011;11050;52.222;20.916;2023-03-01T15:28:26;29.02;;;20.13;;
21777;SDS011;11050;52.222;20.916;2023-03-01T15:31:04;49.22;;;37.33;;
21777;SDS011;11050;52.222;20.916;2023-03-01T15:33:47;59.28;;;42.50;;
21777;SDS011;11050;52.222;20.916;2023-03-01T15:36:32;39.53;;;24.13;;
21777;SDS011;11050;52.222;20.916;2023-03-01T15:39:31;30.08;;;19.13;;
21777;SDS011;11050;52.222;20.916;2023-03-01T15:45:06;33.85;;;21.75;;
21777;SDS011;11050;52.222;20.916;2023-03-01T15:47:52;73.82;;;54.17;;
21777;SDS011;11050;52.222;20.916;2023-03-01T15:50:29;34.23;;;22.00;;
21777;SDS011;11050;52.222;20.916;2023-03-01T15:52:59;29.30;;;18.10;;
21777;SDS011;11050;52.222;20.916;2023-03-01T15:55:31;27.63;;;14.50;;
21777;SDS011;11050;52.222;20.916;2023-03-01T16:00:59;30.77;;;17.77;;
21777;SDS011;11050;52.222;20.916;2023-03-01T16:03:24;33.20;;;16.27;;
21777;SDS011;11050;52.222;20.916;2023-03-01T16:05:51;31.97;;;16.40;;
21777;SDS011;11050;52.222;20.916;2023-03-01T16:08:17;34.17;;;19.60;;
21777;SDS011;11050;52.222;20.916;2023-03-01T16:10:44;35.97;;;21.77;;
21777;SDS011;11050;52.222;20.916;2023-03-01T16:13:11;45.00;;;25.80;;
21777;SDS011;11050;52.222;20.916;2023-03-01T16:15:38;28.17;;;16.93;;
21777;SDS011;11050;52.222;20.916;2023-03-01T16:18:04;59.60;;;34.83;;
21777;SDS011;11050;52.222;20.916;2023-03-01T16:20:32;33.63;;;18.73;;
21777;SDS011;11050;52.222;20.916;2023-03-01T16:22:59;38.63;;;20.47;;
21777;SDS011;11050;52.222;20.916;2023-03-01T16:25:27;41.40;;;21.00;;
21777;SDS011;11050;52.222;20.916;2023-03-01T16:27:55;39.60;;;23.07;;
21777;SDS011;11050;52.222;20.916;2023-03-01T16:30:23;30.63;;;17.03;;
21777;SDS011;11050;52.222;20.916;2023-03-01T16:32:49;27.70;;;14.47;;
21777;SDS011;11050;52.222;20.916;2023-03-01T16:35:16;29.80;;;13.80;;
21777;SDS011;11050;52.222;20.916;2023-03-01T16:37:45;29.03;;;13.73;;
21777;SDS011;11050;52.222;20.916;2023-03-01T16:40:22;25.70;;;13.83;;
21777;SDS011;11050;52.222;20.916;2023-03-01T16:42:51;28.97;;;14.17;;
21777;SDS011;11050;52.222;20.916;2023-03-01T16:45:20;26.87;;;14.03;;
21777;SDS011;11050;52.222;20.916;2023-03-01T16:47:46;29.07;;;13.17;;
21777;SDS011;11050;52.222;20.916;2023-03-01T16:50:11;31.07;;;16.17;;
21777;SDS011;11050;52.222;20.916;2023-03-01T16:52:37;33.70;;;15.40;;
21777;SDS011;11050;52.222;20.916;2023-03-01T16:55:04;27.43;;;13.63;;
21777;SDS011;11050;52.222;20.916;2023-03-01T16:57:33;26.40;;;13.00;;
21777;SDS011;11050;52.222;20.916;2023-03-01T17:00:00;27.47;;;14.37;;
21777;SDS011;11050;52.222;20.916;2023-03-01T17:02:33;29.60;;;15.57;;
21777;SDS011;11050;52.222;20.916;2023-03-01T17:04:59;33.53;;;18.30;;
21777;SDS011;11050;52.222;20.916;2023-03-01T17:07:27;27.30;;;14.07;;
21777;SDS011;11050;52.222;20.916;2023-03-01T17:09:58;25.87;;;13.20;;
21777;SDS011;11050;52.222;20.916;2023-03-01T17:12:28;30.70;;;16.70;;
21777;SDS011;11050;52.222;20.916;2023-03-01T17:14:53;28.23;;;14.90;;